Terminal Aerodrome Forecast
Issued by NWS Binghamton, NY

Home | Current Version | Previous Version | Text Only | Print | Product List | Glossary On
Versions: 1 2 3 4 5 6 7 8 9 10 11 12 13 14 15 16 17 18 19 20
000
FTUS41 KBGM 182100 AAA
TAFSYR
TAF AMD
KSYR 182100Z 1821/1918 32008KT P6SM SCT025 BKN040
      TEMPO 1821/1824 BKN025
     FM190200 VRB03KT P6SM SKC
     FM191500 12005KT P6SM SKC=

USA.gov is the U.S. government's official web portal to all federal, state and local government web resources and services.